sensor_id;sensor_type;location;lat;lon;timestamp;temperature;humidity
53926;DHT22;39836;52.754;6.866;2023-08-08T08:39:06;17.70;75.90
53926;DHT22;39836;52.754;6.866;2023-08-08T08:41:35;17.80;76.50
53926;DHT22;39836;52.754;6.866;2023-08-08T08:44:06;17.90;76.60
53926;DHT22;39836;52.754;6.866;2023-08-08T11:25:45;16.80;83.70
53926;DHT22;39836;52.754;6.866;2023-08-08T11:45:27;17.00;83.30
53926;DHT22;39836;52.754;6.866;2023-08-08T11:47:55;16.70;83.00
53926;DHT22;39836;52.754;6.866;2023-08-08T11:50:40;16.70;83.40
53926;DHT22;39836;52.754;6.866;2023-08-08T11:53:47;16.70;83.40
53926;DHT22;39836;52.754;6.866;2023-08-08T11:56:33;16.90;83.10
53926;DHT22;39836;52.754;6.866;2023-08-08T11:59:00;17.10;83.00
53926;DHT22;39836;52.754;6.866;2023-08-08T12:01:26;17.40;83.00
53926;DHT22;39836;52.754;6.866;2023-08-08T12:03:52;17.60;82.30
53926;DHT22;39836;52.754;6.866;2023-08-08T12:06:19;17.60;82.10
53926;DHT22;39836;52.754;6.866;2023-08-08T12:08:47;17.50;80.80
53926;DHT22;39836;52.754;6.866;2023-08-08T12:11:14;17.20;81.20
53926;DHT22;39836;52.754;6.866;2023-08-08T12:13:44;17.20;81.40
53926;DHT22;39836;52.754;6.866;2023-08-08T12:16:11;17.50;81.80
53926;DHT22;39836;52.754;6.866;2023-08-08T12:18:39;17.70;81.60
53926;DHT22;39836;52.754;6.866;2023-08-08T12:21:09;17.90;81.80
53926;DHT22;39836;52.754;6.866;2023-08-08T12:23:36;18.10;81.70
53926;DHT22;39836;52.754;6.866;2023-08-08T12:26:06;18.30;82.10
53926;DHT22;39836;52.754;6.866;2023-08-08T12:28:35;18.50;81.80
53926;DHT22;39836;52.754;6.866;2023-08-08T12:31:01;18.70;82.20
53926;DHT22;39836;52.754;6.866;2023-08-08T12:33:26;18.90;81.60
53926;DHT22;39836;52.754;6.866;2023-08-08T12:35:52;18.90;80.90
53926;DHT22;39836;52.754;6.866;2023-08-08T12:38:18;18.70;80.80
53926;DHT22;39836;52.754;6.866;2023-08-08T12:40:44;18.60;80.70
53926;DHT22;39836;52.754;6.866;2023-08-08T12:43:11;18.40;80.60
53926;DHT22;39836;52.754;6.866;2023-08-08T12:45:43;18.30;80.00
53926;DHT22;39836;52.754;6.866;2023-08-08T12:48:09;18.40;80.10
53926;DHT22;39836;52.754;6.866;2023-08-08T12:50:35;18.60;80.50
53926;DHT22;39836;52.754;6.866;2023-08-08T12:53:01;18.50;79.60
53926;DHT22;39836;52.754;6.866;2023-08-08T12:55:27;18.40;79.90
53926;DHT22;39836;52.754;6.866;2023-08-08T12:57:52;18.20;80.00
53926;DHT22;39836;52.754;6.866;2023-08-08T13:00:18;18.10;79.20
53926;DHT22;39836;52.754;6.866;2023-08-08T13:02:44;18.00;79.00
53926;DHT22;39836;52.754;6.866;2023-08-08T13:05:09;17.90;79.10
53926;DHT22;39836;52.754;6.866;2023-08-08T13:07:35;17.80;79.40
53926;DHT22;39836;52.754;6.866;2023-08-08T13:10:01;17.80;79.60
53926;DHT22;39836;52.754;6.866;2023-08-08T13:12:27;18.10;79.90
53926;DHT22;39836;52.754;6.866;2023-08-08T13:14:52;18.10;79.30
53926;DHT22;39836;52.754;6.866;2023-08-08T13:17:18;18.30;79.70
53926;DHT22;39836;52.754;6.866;2023-08-08T13:19:45;18.30;78.90
53926;DHT22;39836;52.754;6.866;2023-08-08T13:22:11;18.60;78.90
53926;DHT22;39836;52.754;6.866;2023-08-08T13:24:38;19.00;79.00
53926;DHT22;39836;52.754;6.866;2023-08-08T13:27:04;19.20;78.50
53926;DHT22;39836;52.754;6.866;2023-08-08T13:29:30;19.30;77.40
53926;DHT22;39836;52.754;6.866;2023-08-08T13:31:56;19.20;77.60
53926;DHT22;39836;52.754;6.866;2023-08-08T13:34:21;19.00;77.60
53926;DHT22;39836;52.754;6.866;2023-08-08T13:36:47;18.90;77.20
53926;DHT22;39836;52.754;6.866;2023-08-08T13:39:13;18.60;77.10
53926;DHT22;39836;52.754;6.866;2023-08-08T13:41:39;18.30;77.50
53926;DHT22;39836;52.754;6.866;2023-08-08T13:44:05;18.10;77.70
53926;DHT22;39836;52.754;6.866;2023-08-08T13:46:30;17.90;77.80
53926;DHT22;39836;52.754;6.866;2023-08-08T13:48:56;17.80;78.10
53926;DHT22;39836;52.754;6.866;2023-08-08T13:51:22;17.70;78.20
53926;DHT22;39836;52.754;6.866;2023-08-08T13:53:48;17.50;78.30
53926;DHT22;39836;52.754;6.866;2023-08-08T13:56:17;17.70;78.90
53926;DHT22;39836;52.754;6.866;2023-08-08T13:58:43;18.30;78.70
53926;DHT22;39836;52.754;6.866;2023-08-08T14:01:08;18.70;77.50
53926;DHT22;39836;52.754;6.866;2023-08-08T14:03:34;19.00;77.60
53926;DHT22;39836;52.754;6.866;2023-08-08T14:06:00;19.30;78.10
53926;DHT22;39836;52.754;6.866;2023-08-08T14:08:25;19.30;77.20
53926;DHT22;39836;52.754;6.866;2023-08-08T14:10:51;19.40;76.50
53926;DHT22;39836;52.754;6.866;2023-08-08T14:13:17;19.80;75.80
53926;DHT22;39836;52.754;6.866;2023-08-08T14:15:44;20.30;74.90
53926;DHT22;39836;52.754;6.866;2023-08-08T14:18:10;20.20;74.40
53926;DHT22;39836;52.754;6.866;2023-08-08T14:20:36;19.80;74.30
53926;DHT22;39836;52.754;6.866;2023-08-08T14:23:02;19.40;74.70
53926;DHT22;39836;52.754;6.866;2023-08-08T14:25:28;19.40;75.60
53926;DHT22;39836;52.754;6.866;2023-08-08T14:27:55;20.00;76.40
53926;DHT22;39836;52.754;6.866;2023-08-08T14:30:22;20.60;76.40
53926;DHT22;39836;52.754;6.866;2023-08-08T14:32:48;21.30;76.10
53926;DHT22;39836;52.754;6.866;2023-08-08T14:35:14;21.40;74.20
53926;DHT22;39836;52.754;6.866;2023-08-08T14:37:39;21.10;73.60
53926;DHT22;39836;52.754;6.866;2023-08-08T14:40:06;21.00;73.70
53926;DHT22;39836;52.754;6.866;2023-08-08T14:42:32;20.90;74.00
53926;DHT22;39836;52.754;6.866;2023-08-08T14:44:58;20.90;73.80
53926;DHT22;39836;52.754;6.866;2023-08-08T14:47:23;20.90;73.90
53926;DHT22;39836;52.754;6.866;2023-08-08T14:49:49;20.90;73.80
53926;DHT22;39836;52.754;6.866;2023-08-08T14:52:16;20.90;73.70
53926;DHT22;39836;52.754;6.866;2023-08-08T14:54:42;21.20;73.70
53926;DHT22;39836;52.754;6.866;2023-08-08T14:57:08;21.70;73.30
53926;DHT22;39836;52.754;6.866;2023-08-08T14:59:34;22.00;73.10
53926;DHT22;39836;52.754;6.866;2023-08-08T15:01:59;21.70;71.70
53926;DHT22;39836;52.754;6.866;2023-08-08T15:04:25;21.00;72.30
53926;DHT22;39836;52.754;6.866;2023-08-08T15:06:51;20.40;72.80
53926;DHT22;39836;52.754;6.866;2023-08-08T15:09:17;19.70;74.70
53926;DHT22;39836;52.754;6.866;2023-08-08T15:11:42;18.80;75.90
53926;DHT22;39836;52.754;6.866;2023-08-08T15:14:08;18.30;76.90
53926;DHT22;39836;52.754;6.866;2023-08-08T15:16:34;18.30;77.70
53926;DHT22;39836;52.754;6.866;2023-08-08T15:18:59;18.90;78.00
53926;DHT22;39836;52.754;6.866;2023-08-08T15:21:25;19.80;77.50
53926;DHT22;39836;52.754;6.866;2023-08-08T15:23:51;20.60;76.80
53926;DHT22;39836;52.754;6.866;2023-08-08T15:26:17;21.10;74.60
53926;DHT22;39836;52.754;6.866;2023-08-08T15:28:46;21.00;74.40
53926;DHT22;39836;52.754;6.866;2023-08-08T15:31:12;20.60;73.00
53926;DHT22;39836;52.754;6.866;2023-08-08T15:33:37;20.10;73.70
53926;DHT22;39836;52.754;6.866;2023-08-08T15:36:04;19.80;74.20
53926;DHT22;39836;52.754;6.866;2023-08-08T15:38:30;19.60;73.70
53926;DHT22;39836;52.754;6.866;2023-08-08T15:40:56;19.30;73.80
53926;DHT22;39836;52.754;6.866;2023-08-08T15:43:22;19.10;74.00
53926;DHT22;39836;52.754;6.866;2023-08-08T15:45:49;19.00;74.90
53926;DHT22;39836;52.754;6.866;2023-08-08T15:48:15;19.00;74.40
53926;DHT22;39836;52.754;6.866;2023-08-08T15:50:42;19.00;74.50
53926;DHT22;39836;52.754;6.866;2023-08-08T15:53:07;19.00;74.20
53926;DHT22;39836;52.754;6.866;2023-08-08T15:55:35;19.00;74.00
53926;DHT22;39836;52.754;6.866;2023-08-08T15:58:02;18.90;73.60
53926;DHT22;39836;52.754;6.866;2023-08-08T16:00:28;18.80;73.50
53926;DHT22;39836;52.754;6.866;2023-08-08T16:03:05;18.70;73.50
53926;DHT22;39836;52.754;6.866;2023-08-08T16:06:21;18.60;73.80
53926;DHT22;39836;52.754;6.866;2023-08-08T16:09:50;18.50;73.10
53926;DHT22;39836;52.754;6.866;2023-08-08T19:34:31;15.00;77.20
53926;DHT22;39836;52.754;6.866;2023-08-08T19:36:57;14.90;77.40
